sensor_id;sensor_type;location;lat;lon;timestamp;P1;durP1;ratioP1;P2;durP2;ratioP2
7493;SDS011;3788;49.902;8.590;2022-07-29T00:01:47;1.47;;;1.33;;
7493;SDS011;3788;49.902;8.590;2022-07-29T00:04:15;1.20;;;1.10;;
7493;SDS011;3788;49.902;8.590;2022-07-29T00:06:42;1.47;;;1.37;;
7493;SDS011;3788;49.902;8.590;2022-07-29T00:09:09;1.43;;;1.00;;
7493;SDS011;3788;49.902;8.590;2022-07-29T00:11:35;2.07;;;1.60;;
7493;SDS011;3788;49.902;8.590;2022-07-29T00:14:02;1.20;;;1.10;;
7493;SDS011;3788;49.902;8.590;2022-07-29T00:16:29;1.00;;;1.00;;
7493;SDS011;3788;49.902;8.590;2022-07-29T00:18:56;1.63;;;1.10;;
7493;SDS011;3788;49.902;8.590;2022-07-29T00:21:24;1.50;;;1.17;;
7493;SDS011;3788;49.902;8.590;2022-07-29T00:23:51;2.70;;;1.40;;
7493;SDS011;3788;49.902;8.590;2022-07-29T00:26:18;2.03;;;1.40;;
7493;SDS011;3788;49.902;8.590;2022-07-29T00:28:44;1.67;;;1.40;;
7493;SDS011;3788;49.902;8.590;2022-07-29T00:31:11;2.63;;;1.30;;
7493;SDS011;3788;49.902;8.590;2022-07-29T00:33:38;1.80;;;1.40;;
7493;SDS011;3788;49.902;8.590;2022-07-29T00:36:05;1.40;;;1.20;;
7493;SDS011;3788;49.902;8.590;2022-07-29T00:38:32;1.67;;;1.23;;
7493;SDS011;3788;49.902;8.590;2022-07-29T00:40:59;1.70;;;1.20;;
7493;SDS011;3788;49.902;8.590;2022-07-29T00:43:26;1.60;;;1.50;;
7493;SDS011;3788;49.902;8.590;2022-07-29T00:45:53;2.40;;;1.20;;
7493;SDS011;3788;49.902;8.590;2022-07-29T00:48:19;2.13;;;1.17;;
7493;SDS011;3788;49.902;8.590;2022-07-29T00:50:46;1.73;;;1.47;;
7493;SDS011;3788;49.902;8.590;2022-07-29T00:53:14;3.17;;;1.50;;
7493;SDS011;3788;49.902;8.590;2022-07-29T00:55:42;1.70;;;1.40;;
7493;SDS011;3788;49.902;8.590;2022-07-29T00:58:09;1.73;;;1.60;;
7493;SDS011;3788;49.902;8.590;2022-07-29T01:00:38;1.57;;;1.27;;
7493;SDS011;3788;49.902;8.590;2022-07-29T01:03:05;1.63;;;1.53;;
7493;SDS011;3788;49.902;8.590;2022-07-29T01:05:32;1.67;;;1.50;;
7493;SDS011;3788;49.902;8.590;2022-07-29T01:08:00;1.70;;;1.30;;
7493;SDS011;3788;49.902;8.590;2022-07-29T01:10:29;2.67;;;1.07;;
7493;SDS011;3788;49.902;8.590;2022-07-29T01:12:58;1.70;;;1.43;;
7493;SDS011;3788;49.902;8.590;2022-07-29T01:15:26;1.30;;;1.20;;
7493;SDS011;3788;49.902;8.590;2022-07-29T01:17:56;2.17;;;1.30;;
7493;SDS011;3788;49.902;8.590;2022-07-29T01:20:30;1.63;;;1.30;;
7493;SDS011;3788;49.902;8.590;2022-07-29T01:23:11;2.17;;;1.30;;
7493;SDS011;3788;49.902;8.590;2022-07-29T01:25:54;2.37;;;1.70;;
7493;SDS011;3788;49.902;8.590;2022-07-29T01:31:28;1.40;;;1.30;;
7493;SDS011;3788;49.902;8.590;2022-07-29T01:34:02;2.53;;;1.37;;
7493;SDS011;3788;49.902;8.590;2022-07-29T01:36:32;1.30;;;1.20;;
7493;SDS011;3788;49.902;8.590;2022-07-29T01:39:04;2.33;;;1.57;;
7493;SDS011;3788;49.902;8.590;2022-07-29T01:41:34;1.50;;;1.40;;
7493;SDS011;3788;49.902;8.590;2022-07-29T01:44:10;1.47;;;1.30;;
7493;SDS011;3788;49.902;8.590;2022-07-29T01:46:41;2.50;;;1.70;;
7493;SDS011;3788;49.902;8.590;2022-07-29T01:49:13;2.43;;;1.70;;
7493;SDS011;3788;49.902;8.590;2022-07-29T01:51:43;2.20;;;1.97;;
7493;SDS011;3788;49.902;8.590;2022-07-29T01:54:14;2.80;;;1.60;;
7493;SDS011;3788;49.902;8.590;2022-07-29T01:56:47;2.23;;;1.67;;
7493;SDS011;3788;49.902;8.590;2022-07-29T01:59:18;2.43;;;2.13;;
7493;SDS011;3788;49.902;8.590;2022-07-29T02:01:47;2.13;;;1.80;;
7493;SDS011;3788;49.902;8.590;2022-07-29T02:04:16;2.87;;;1.80;;
7493;SDS011;3788;49.902;8.590;2022-07-29T02:06:45;2.60;;;1.60;;
7493;SDS011;3788;49.902;8.590;2022-07-29T02:09:15;2.30;;;1.70;;
7493;SDS011;3788;49.902;8.590;2022-07-29T02:11:44;2.00;;;1.60;;
7493;SDS011;3788;49.902;8.590;2022-07-29T02:14:15;3.80;;;1.63;;
7493;SDS011;3788;49.902;8.590;2022-07-29T02:16:47;2.83;;;1.60;;
7493;SDS011;3788;49.902;8.590;2022-07-29T02:19:18;2.17;;;1.50;;
7493;SDS011;3788;49.902;8.590;2022-07-29T02:21:47;4.37;;;1.90;;
7493;SDS011;3788;49.902;8.590;2022-07-29T02:24:17;3.63;;;1.70;;
7493;SDS011;3788;49.902;8.590;2022-07-29T02:26:44;2.00;;;1.80;;
7493;SDS011;3788;49.902;8.590;2022-07-29T02:29:13;2.70;;;1.50;;
7493;SDS011;3788;49.902;8.590;2022-07-29T02:31:44;2.23;;;1.53;;
7493;SDS011;3788;49.902;8.590;2022-07-29T02:34:12;5.43;;;2.10;;
7493;SDS011;3788;49.902;8.590;2022-07-29T02:36:40;2.10;;;1.77;;
7493;SDS011;3788;49.902;8.590;2022-07-29T02:39:10;3.30;;;1.87;;
7493;SDS011;3788;49.902;8.590;2022-07-29T02:41:40;3.43;;;1.70;;
7493;SDS011;3788;49.902;8.590;2022-07-29T02:44:10;1.70;;;1.50;;
7493;SDS011;3788;49.902;8.590;2022-07-29T02:46:40;1.97;;;1.63;;
7493;SDS011;3788;49.902;8.590;2022-07-29T02:49:13;2.53;;;2.00;;
7493;SDS011;3788;49.902;8.590;2022-07-29T02:51:43;2.37;;;1.77;;
7493;SDS011;3788;49.902;8.590;2022-07-29T02:54:24;2.57;;;2.00;;
7493;SDS011;3788;49.902;8.590;2022-07-29T02:56:55;2.60;;;1.73;;
7493;SDS011;3788;49.902;8.590;2022-07-29T02:59:25;2.33;;;1.47;;
7493;SDS011;3788;49.902;8.590;2022-07-29T03:01:55;3.53;;;1.70;;
7493;SDS011;3788;49.902;8.590;2022-07-29T03:04:24;3.97;;;2.20;;
7493;SDS011;3788;49.902;8.590;2022-07-29T03:06:54;2.57;;;1.80;;
7493;SDS011;3788;49.902;8.590;2022-07-29T03:09:22;4.00;;;1.90;;
7493;SDS011;3788;49.902;8.590;2022-07-29T03:11:50;2.33;;;2.13;;
7493;SDS011;3788;49.902;8.590;2022-07-29T03:14:19;2.17;;;1.37;;
7493;SDS011;3788;49.902;8.590;2022-07-29T03:16:48;3.27;;;1.80;;
7493;SDS011;3788;49.902;8.590;2022-07-29T03:19:17;1.70;;;1.53;;
7493;SDS011;3788;49.902;8.590;2022-07-29T03:21:45;1.77;;;1.60;;
7493;SDS011;3788;49.902;8.590;2022-07-29T03:24:23;2.27;;;1.67;;
7493;SDS011;3788;49.902;8.590;2022-07-29T03:26:51;1.80;;;1.70;;
7493;SDS011;3788;49.902;8.590;2022-07-29T03:29:18;1.80;;;1.70;;
7493;SDS011;3788;49.902;8.590;2022-07-29T03:31:44;2.20;;;1.87;;
7493;SDS011;3788;49.902;8.590;2022-07-29T03:34:11;3.27;;;2.10;;
7493;SDS011;3788;49.902;8.590;2022-07-29T03:36:39;3.20;;;2.10;;
7493;SDS011;3788;49.902;8.590;2022-07-29T03:39:06;2.50;;;1.80;;
7493;SDS011;3788;49.902;8.590;2022-07-29T03:41:35;1.70;;;1.43;;
7493;SDS011;3788;49.902;8.590;2022-07-29T03:44:02;2.23;;;1.87;;
7493;SDS011;3788;49.902;8.590;2022-07-29T03:46:31;3.60;;;2.00;;
7493;SDS011;3788;49.902;8.590;2022-07-29T03:49:02;1.67;;;1.57;;
7493;SDS011;3788;49.902;8.590;2022-07-29T03:51:33;4.40;;;1.60;;
7493;SDS011;3788;49.902;8.590;2022-07-29T03:54:01;4.60;;;2.00;;
7493;SDS011;3788;49.902;8.590;2022-07-29T03:56:29;2.70;;;1.97;;
7493;SDS011;3788;49.902;8.590;2022-07-29T03:58:58;3.37;;;2.00;;
7493;SDS011;3788;49.902;8.590;2022-07-29T04:01:27;2.17;;;1.90;;
7493;SDS011;3788;49.902;8.590;2022-07-29T04:03:54;3.13;;;1.90;;
7493;SDS011;3788;49.902;8.590;2022-07-29T04:06:21;1.67;;;1.57;;
7493;SDS011;3788;49.902;8.590;2022-07-29T04:08:48;3.23;;;1.80;;
7493;SDS011;3788;49.902;8.590;2022-07-29T04:11:16;3.03;;;1.77;;
7493;SDS011;3788;49.902;8.590;2022-07-29T04:13:43;2.47;;;1.63;;
7493;SDS011;3788;49.902;8.590;2022-07-29T04:16:09;3.10;;;1.60;;
7493;SDS011;3788;49.902;8.590;2022-07-29T04:18:36;2.30;;;1.70;;
7493;SDS011;3788;49.902;8.590;2022-07-29T04:21:02;2.90;;;2.03;;
7493;SDS011;3788;49.902;8.590;2022-07-29T04:23:30;2.20;;;1.63;;
7493;SDS011;3788;49.902;8.590;2022-07-29T04:25:58;1.87;;;1.50;;
7493;SDS011;3788;49.902;8.590;2022-07-29T04:28:27;2.03;;;1.80;;
7493;SDS011;3788;49.902;8.590;2022-07-29T04:30:54;2.57;;;2.00;;
7493;SDS011;3788;49.902;8.590;2022-07-29T04:33:20;2.40;;;1.70;;
7493;SDS011;3788;49.902;8.590;2022-07-29T04:35:47;2.77;;;1.77;;
7493;SDS011;3788;49.902;8.590;2022-07-29T04:38:14;2.13;;;1.50;;
7493;SDS011;3788;49.902;8.590;2022-07-29T04:40:40;2.93;;;1.87;;
7493;SDS011;3788;49.902;8.590;2022-07-29T04:43:07;2.77;;;1.70;;
7493;SDS011;3788;49.902;8.590;2022-07-29T04:45:35;2.43;;;1.60;;
7493;SDS011;3788;49.902;8.590;2022-07-29T04:48:02;1.57;;;1.47;;
7493;SDS011;3788;49.902;8.590;2022-07-29T04:50:29;1.70;;;1.60;;
7493;SDS011;3788;49.902;8.590;2022-07-29T04:52:56;2.47;;;1.60;;
7493;SDS011;3788;49.902;8.590;2022-07-29T04:55:23;2.00;;;1.77;;
7493;SDS011;3788;49.902;8.590;2022-07-29T04:57:50;2.13;;;1.60;;
7493;SDS011;3788;49.902;8.590;2022-07-29T05:00:17;1.63;;;1.43;;
7493;SDS011;3788;49.902;8.590;2022-07-29T05:02:45;2.20;;;1.83;;
7493;SDS011;3788;49.902;8.590;2022-07-29T05:05:11;1.57;;;1.37;;
7493;SDS011;3788;49.902;8.590;2022-07-29T05:07:38;1.70;;;1.60;;
7493;SDS011;3788;49.902;8.590;2022-07-29T05:10:05;2.70;;;1.80;;
7493;SDS011;3788;49.902;8.590;2022-07-29T05:12:32;1.50;;;1.40;;
7493;SDS011;3788;49.902;8.590;2022-07-29T05:14:58;3.13;;;1.57;;
7493;SDS011;3788;49.902;8.590;2022-07-29T05:17:26;2.90;;;2.00;;
7493;SDS011;3788;49.902;8.590;2022-07-29T05:19:54;2.07;;;1.70;;
7493;SDS011;3788;49.902;8.590;2022-07-29T05:22:21;4.73;;;1.83;;
7493;SDS011;3788;49.902;8.590;2022-07-29T05:24:48;3.97;;;1.70;;
7493;SDS011;3788;49.902;8.590;2022-07-29T05:27:14;2.23;;;1.83;;
7493;SDS011;3788;49.902;8.590;2022-07-29T05:29:41;2.60;;;1.97;;
7493;SDS011;3788;49.902;8.590;2022-07-29T05:32:08;3.37;;;2.23;;
7493;SDS011;3788;49.902;8.590;2022-07-29T05:34:34;2.23;;;1.50;;
7493;SDS011;3788;49.902;8.590;2022-07-29T05:37:02;2.40;;;1.63;;
7493;SDS011;3788;49.902;8.590;2022-07-29T05:39:29;1.60;;;1.50;;
7493;SDS011;3788;49.902;8.590;2022-07-29T05:41:55;2.67;;;1.80;;
7493;SDS011;3788;49.902;8.590;2022-07-29T05:44:22;2.33;;;1.83;;
7493;SDS011;3788;49.902;8.590;2022-07-29T05:46:49;3.20;;;2.00;;
7493;SDS011;3788;49.902;8.590;2022-07-29T05:49:15;3.30;;;1.70;;
7493;SDS011;3788;49.902;8.590;2022-07-29T05:51:42;2.93;;;1.87;;
7493;SDS011;3788;49.902;8.590;2022-07-29T05:54:10;2.30;;;1.87;;
7493;SDS011;3788;49.902;8.590;2022-07-29T05:56:37;2.53;;;1.70;;
7493;SDS011;3788;49.902;8.590;2022-07-29T05:59:04;2.93;;;2.30;;
7493;SDS011;3788;49.902;8.590;2022-07-29T06:01:31;2.97;;;2.00;;
7493;SDS011;3788;49.902;8.590;2022-07-29T06:03:58;4.97;;;2.10;;
7493;SDS011;3788;49.902;8.590;2022-07-29T06:06:24;2.27;;;1.70;;
7493;SDS011;3788;49.902;8.590;2022-07-29T06:08:51;4.20;;;2.03;;
7493;SDS011;3788;49.902;8.590;2022-07-29T06:11:19;2.80;;;2.03;;
7493;SDS011;3788;49.902;8.590;2022-07-29T06:13:46;3.83;;;1.80;;
7493;SDS011;3788;49.902;8.590;2022-07-29T06:16:12;2.87;;;2.00;;
7493;SDS011;3788;49.902;8.590;2022-07-29T06:18:39;2.60;;;1.53;;
7493;SDS011;3788;49.902;8.590;2022-07-29T06:21:07;2.97;;;1.90;;
7493;SDS011;3788;49.902;8.590;2022-07-29T06:23:34;1.97;;;1.80;;
7493;SDS011;3788;49.902;8.590;2022-07-29T06:26:01;2.47;;;2.13;;
7493;SDS011;3788;49.902;8.590;2022-07-29T06:28:29;3.13;;;2.33;;
7493;SDS011;3788;49.902;8.590;2022-07-29T06:30:56;3.63;;;2.10;;
7493;SDS011;3788;49.902;8.590;2022-07-29T06:33:23;3.57;;;2.10;;
7493;SDS011;3788;49.902;8.590;2022-07-29T06:35:50;2.67;;;2.00;;
7493;SDS011;3788;49.902;8.590;2022-07-29T06:38:16;2.87;;;2.30;;
7493;SDS011;3788;49.902;8.590;2022-07-29T06:40:43;4.20;;;2.20;;
7493;SDS011;3788;49.902;8.590;2022-07-29T06:43:31;3.07;;;1.93;;
7493;SDS011;3788;49.902;8.590;2022-07-29T06:46:01;4.93;;;2.63;;
7493;SDS011;3788;49.902;8.590;2022-07-29T06:48:31;5.47;;;2.70;;
7493;SDS011;3788;49.902;8.590;2022-07-29T06:50:59;4.17;;;1.83;;
7493;SDS011;3788;49.902;8.590;2022-07-29T06:53:26;4.33;;;2.00;;
7493;SDS011;3788;49.902;8.590;2022-07-29T06:55:54;3.13;;;2.27;;
7493;SDS011;3788;49.902;8.590;2022-07-29T06:58:21;2.53;;;2.33;;
7493;SDS011;3788;49.902;8.590;2022-07-29T07:00:48;4.00;;;1.93;;
7493;SDS011;3788;49.902;8.590;2022-07-29T07:03:15;3.43;;;2.13;;
7493;SDS011;3788;49.902;8.590;2022-07-29T07:05:42;3.60;;;2.37;;
7493;SDS011;3788;49.902;8.590;2022-07-29T07:08:10;5.83;;;2.43;;
7493;SDS011;3788;49.902;8.590;2022-07-29T07:10:36;3.43;;;2.20;;
7493;SDS011;3788;49.902;8.590;2022-07-29T07:13:05;2.93;;;2.20;;
7493;SDS011;3788;49.902;8.590;2022-07-29T07:15:32;2.20;;;1.90;;
7493;SDS011;3788;49.902;8.590;2022-07-29T07:18:00;4.40;;;2.30;;
7493;SDS011;3788;49.902;8.590;2022-07-29T07:20:26;3.67;;;2.37;;
7493;SDS011;3788;49.902;8.590;2022-07-29T07:22:53;3.60;;;2.47;;
7493;SDS011;3788;49.902;8.590;2022-07-29T07:25:20;3.93;;;2.90;;
7493;SDS011;3788;49.902;8.590;2022-07-29T07:27:47;2.47;;;1.97;;
7493;SDS011;3788;49.902;8.590;2022-07-29T07:30:14;2.80;;;2.07;;
7493;SDS011;3788;49.902;8.590;2022-07-29T07:32:41;2.43;;;2.13;;
7493;SDS011;3788;49.902;8.590;2022-07-29T07:35:09;2.90;;;2.10;;
7493;SDS011;3788;49.902;8.590;2022-07-29T07:37:37;4.17;;;2.73;;
7493;SDS011;3788;49.902;8.590;2022-07-29T07:40:10;3.53;;;2.43;;
7493;SDS011;3788;49.902;8.590;2022-07-29T07:42:38;3.07;;;2.37;;
7493;SDS011;3788;49.902;8.590;2022-07-29T07:45:06;2.80;;;2.40;;
7493;SDS011;3788;49.902;8.590;2022-07-29T07:47:35;2.63;;;2.17;;
7493;SDS011;3788;49.902;8.590;2022-07-29T07:50:02;2.67;;;2.47;;
7493;SDS011;3788;49.902;8.590;2022-07-29T07:52:30;2.30;;;2.10;;
7493;SDS011;3788;49.902;8.590;2022-07-29T07:54:57;1.97;;;1.77;;
7493;SDS011;3788;49.902;8.590;2022-07-29T07:57:24;1.97;;;1.77;;
7493;SDS011;3788;49.902;8.590;2022-07-29T07:59:51;2.10;;;1.90;;
7493;SDS011;3788;49.902;8.590;2022-07-29T08:02:18;2.57;;;1.70;;
7493;SDS011;3788;49.902;8.590;2022-07-29T08:04:45;2.70;;;2.10;;
7493;SDS011;3788;49.902;8.590;2022-07-29T08:07:12;2.83;;;2.00;;
7493;SDS011;3788;49.902;8.590;2022-07-29T08:09:41;3.00;;;2.07;;
7493;SDS011;3788;49.902;8.590;2022-07-29T08:12:07;2.97;;;2.07;;
7493;SDS011;3788;49.902;8.590;2022-07-29T08:14:34;3.03;;;2.10;;
7493;SDS011;3788;49.902;8.590;2022-07-29T08:17:01;3.03;;;2.45;;
7493;SDS011;3788;49.902;8.590;2022-07-29T08:19:27;2.40;;;2.20;;
7493;SDS011;3788;49.902;8.590;2022-07-29T08:21:54;3.45;;;2.83;;
7493;SDS011;3788;49.902;8.590;2022-07-29T08:24:21;2.08;;;1.95;;
7493;SDS011;3788;49.902;8.590;2022-07-29T08:27:07;3.92;;;2.28;;
7493;SDS011;3788;49.902;8.590;2022-07-29T08:29:34;2.72;;;2.45;;
7493;SDS011;3788;49.902;8.590;2022-07-29T08:32:01;3.75;;;2.33;;
7493;SDS011;3788;49.902;8.590;2022-07-29T08:34:27;4.88;;;2.90;;
7493;SDS011;3788;49.902;8.590;2022-07-29T08:36:54;3.13;;;2.63;;
7493;SDS011;3788;49.902;8.590;2022-07-29T08:39:21;2.97;;;2.40;;
7493;SDS011;3788;49.902;8.590;2022-07-29T08:41:49;4.38;;;2.65;;
7493;SDS011;3788;49.902;8.590;2022-07-29T08:44:19;3.92;;;2.83;;
7493;SDS011;3788;49.902;8.590;2022-07-29T08:46:46;3.28;;;2.42;;
7493;SDS011;3788;49.902;8.590;2022-07-29T08:49:14;3.45;;;2.50;;
7493;SDS011;3788;49.902;8.590;2022-07-29T08:51:41;3.17;;;2.38;;
7493;SDS011;3788;49.902;8.590;2022-07-29T08:54:10;2.70;;;2.50;;
7493;SDS011;3788;49.902;8.590;2022-07-29T08:56:40;2.78;;;2.40;;
7493;SDS011;3788;49.902;8.590;2022-07-29T08:59:07;2.80;;;2.47;;
7493;SDS011;3788;49.902;8.590;2022-07-29T09:01:37;2.63;;;2.42;;
7493;SDS011;3788;49.902;8.590;2022-07-29T09:04:05;2.67;;;2.28;;
7493;SDS011;3788;49.902;8.590;2022-07-29T09:06:36;2.58;;;2.25;;
7493;SDS011;3788;49.902;8.590;2022-07-29T09:09:07;2.50;;;2.38;;
7493;SDS011;3788;49.902;8.590;2022-07-29T09:11:34;3.25;;;2.95;;
7493;SDS011;3788;49.902;8.590;2022-07-29T09:14:00;3.03;;;2.58;;
7493;SDS011;3788;49.902;8.590;2022-07-29T09:16:41;2.67;;;2.47;;
7493;SDS011;3788;49.902;8.590;2022-07-29T09:19:18;4.50;;;2.90;;
7493;SDS011;3788;49.902;8.590;2022-07-29T09:21:46;2.70;;;2.50;;
7493;SDS011;3788;49.902;8.590;2022-07-29T09:24:39;2.75;;;2.53;;
7493;SDS011;3788;49.902;8.590;2022-07-29T09:27:11;4.32;;;3.20;;
7493;SDS011;3788;49.902;8.590;2022-07-29T09:29:45;2.65;;;2.45;;
7493;SDS011;3788;49.902;8.590;2022-07-29T09:32:14;3.03;;;2.42;;
7493;SDS011;3788;49.902;8.590;2022-07-29T09:34:41;3.58;;;3.03;;
7493;SDS011;3788;49.902;8.590;2022-07-29T09:37:07;2.90;;;2.15;;
7493;SDS011;3788;49.902;8.590;2022-07-29T09:39:35;2.47;;;2.28;;
7493;SDS011;3788;49.902;8.590;2022-07-29T09:42:09;2.63;;;2.42;;
7493;SDS011;3788;49.902;8.590;2022-07-29T09:44:43;2.70;;;2.50;;
7493;SDS011;3788;49.902;8.590;2022-07-29T09:47:11;2.45;;;2.25;;
7493;SDS011;3788;49.902;8.590;2022-07-29T09:49:51;2.42;;;2.22;;
7493;SDS011;3788;49.902;8.590;2022-07-29T09:52:22;2.75;;;2.45;;
7493;SDS011;3788;49.902;8.590;2022-07-29T09:54:49;2.55;;;2.35;;
7493;SDS011;3788;49.902;8.590;2022-07-29T09:57:24;2.88;;;2.58;;
7493;SDS011;3788;49.902;8.590;2022-07-29T09:59:56;2.63;;;2.40;;
7493;SDS011;3788;49.902;8.590;2022-07-29T10:02:27;2.70;;;2.50;;
7493;SDS011;3788;49.902;8.590;2022-07-29T10:04:56;2.55;;;2.35;;
7493;SDS011;3788;49.902;8.590;2022-07-29T10:07:24;2.30;;;2.15;;
7493;SDS011;3788;49.902;8.590;2022-07-29T10:09:52;4.75;;;2.85;;
7493;SDS011;3788;49.902;8.590;2022-07-29T10:12:20;2.92;;;2.50;;
7493;SDS011;3788;49.902;8.590;2022-07-29T10:14:47;3.42;;;2.35;;
7493;SDS011;3788;49.902;8.590;2022-07-29T10:17:14;5.40;;;2.75;;
7493;SDS011;3788;49.902;8.590;2022-07-29T10:19:42;3.20;;;2.90;;
7493;SDS011;3788;49.902;8.590;2022-07-29T10:22:11;3.45;;;3.13;;
7493;SDS011;3788;49.902;8.590;2022-07-29T10:24:38;3.38;;;2.55;;
7493;SDS011;3788;49.902;8.590;2022-07-29T10:27:05;2.67;;;2.47;;
7493;SDS011;3788;49.902;8.590;2022-07-29T10:29:33;3.78;;;2.72;;
7493;SDS011;3788;49.902;8.590;2022-07-29T10:32:08;2.95;;;2.75;;
7493;SDS011;3788;49.902;8.590;2022-07-29T10:37:52;2.83;;;2.63;;
7493;SDS011;3788;49.902;8.590;2022-07-29T10:40:33;3.25;;;2.95;;
7493;SDS011;3788;49.902;8.590;2022-07-29T10:43:32;3.90;;;3.17;;
7493;SDS011;3788;49.902;8.590;2022-07-29T10:46:02;3.13;;;2.80;;
7493;SDS011;3788;49.902;8.590;2022-07-29T10:48:30;3.35;;;3.05;;
7493;SDS011;3788;49.902;8.590;2022-07-29T10:50:57;3.55;;;2.60;;
7493;SDS011;3788;49.902;8.590;2022-07-29T10:53:46;3.00;;;2.55;;
7493;SDS011;3788;49.902;8.590;2022-07-29T10:56:22;5.60;;;2.80;;
7493;SDS011;3788;49.902;8.590;2022-07-29T10:59:05;2.67;;;2.47;;
7493;SDS011;3788;49.902;8.590;2022-07-29T11:01:49;3.88;;;3.20;;
7493;SDS011;3788;49.902;8.590;2022-07-29T11:04:17;3.20;;;2.90;;
7493;SDS011;3788;49.902;8.590;2022-07-29T11:07:23;3.10;;;2.80;;
7493;SDS011;3788;49.902;8.590;2022-07-29T11:12:48;3.15;;;2.85;;
7493;SDS011;3788;49.902;8.590;2022-07-29T11:15:16;3.10;;;2.80;;
7493;SDS011;3788;49.902;8.590;2022-07-29T11:20:34;5.93;;;3.10;;
7493;SDS011;3788;49.902;8.590;2022-07-29T11:23:27;3.40;;;3.10;;
7493;SDS011;3788;49.902;8.590;2022-07-29T11:26:14;4.00;;;3.23;;
7493;SDS011;3788;49.902;8.590;2022-07-29T11:28:48;3.70;;;3.00;;
7493;SDS011;3788;49.902;8.590;2022-07-29T11:31:32;3.33;;;3.03;;
7493;SDS011;3788;49.902;8.590;2022-07-29T11:34:17;3.40;;;3.10;;
7493;SDS011;3788;49.902;8.590;2022-07-29T11:39:41;3.43;;;2.77;;
7493;SDS011;3788;49.902;8.590;2022-07-29T11:45:06;3.27;;;3.00;;
7493;SDS011;3788;49.902;8.590;2022-07-29T11:47:35;4.57;;;2.90;;
7493;SDS011;3788;49.902;8.590;2022-07-29T11:50:04;3.40;;;3.03;;
7493;SDS011;3788;49.902;8.590;2022-07-29T11:52:32;4.03;;;2.97;;
7493;SDS011;3788;49.902;8.590;2022-07-29T11:55:04;2.77;;;2.57;;
7493;SDS011;3788;49.902;8.590;2022-07-29T11:57:32;3.90;;;3.50;;
7493;SDS011;3788;49.902;8.590;2022-07-29T12:00:03;4.00;;;3.13;;
7493;SDS011;3788;49.902;8.590;2022-07-29T12:02:38;3.03;;;2.73;;
7493;SDS011;3788;49.902;8.590;2022-07-29T12:05:07;2.97;;;2.77;;
7493;SDS011;3788;49.902;8.590;2022-07-29T12:07:34;3.33;;;3.10;;
7493;SDS011;3788;49.902;8.590;2022-07-29T12:10:01;3.53;;;3.23;;
7493;SDS011;3788;49.902;8.590;2022-07-29T12:12:30;4.30;;;3.20;;
7493;SDS011;3788;49.902;8.590;2022-07-29T12:14:57;3.77;;;3.20;;
7493;SDS011;3788;49.902;8.590;2022-07-29T12:17:35;3.27;;;2.97;;
7493;SDS011;3788;49.902;8.590;2022-07-29T12:20:04;3.43;;;3.17;;
7493;SDS011;3788;49.902;8.590;2022-07-29T12:22:32;3.33;;;3.03;;
7493;SDS011;3788;49.902;8.590;2022-07-29T12:25:04;3.40;;;3.10;;
7493;SDS011;3788;49.902;8.590;2022-07-29T12:27:32;3.60;;;3.30;;
7493;SDS011;3788;49.902;8.590;2022-07-29T12:29:59;3.63;;;3.10;;
7493;SDS011;3788;49.902;8.590;2022-07-29T12:32:30;3.50;;;3.30;;
7493;SDS011;3788;49.902;8.590;2022-07-29T12:34:58;3.10;;;2.90;;
7493;SDS011;3788;49.902;8.590;2022-07-29T12:37:26;3.43;;;3.23;;
7493;SDS011;3788;49.902;8.590;2022-07-29T12:39:52;3.20;;;2.90;;
7493;SDS011;3788;49.902;8.590;2022-07-29T12:42:20;3.57;;;3.10;;
7493;SDS011;3788;49.902;8.590;2022-07-29T12:44:48;3.93;;;3.10;;
7493;SDS011;3788;49.902;8.590;2022-07-29T12:47:16;3.40;;;3.20;;
7493;SDS011;3788;49.902;8.590;2022-07-29T12:49:43;3.10;;;2.80;;
7493;SDS011;3788;49.902;8.590;2022-07-29T12:52:23;3.30;;;3.00;;
7493;SDS011;3788;49.902;8.590;2022-07-29T12:54:51;4.70;;;3.40;;
7493;SDS011;3788;49.902;8.590;2022-07-29T12:57:17;3.43;;;3.13;;
7493;SDS011;3788;49.902;8.590;2022-07-29T12:59:46;3.47;;;3.17;;
7493;SDS011;3788;49.902;8.590;2022-07-29T13:02:32;3.30;;;3.00;;
7493;SDS011;3788;49.902;8.590;2022-07-29T13:05:00;3.63;;;3.27;;
7493;SDS011;3788;49.902;8.590;2022-07-29T13:07:29;3.57;;;3.10;;
7493;SDS011;3788;49.902;8.590;2022-07-29T13:10:09;4.27;;;3.30;;
7493;SDS011;3788;49.902;8.590;2022-07-29T13:12:37;3.10;;;2.90;;
7493;SDS011;3788;49.902;8.590;2022-07-29T13:15:13;4.57;;;3.73;;
7493;SDS011;3788;49.902;8.590;2022-07-29T13:17:41;3.27;;;2.97;;
7493;SDS011;3788;49.902;8.590;2022-07-29T13:20:09;3.53;;;3.23;;
7493;SDS011;3788;49.902;8.590;2022-07-29T13:22:39;3.87;;;3.47;;
7493;SDS011;3788;49.902;8.590;2022-07-29T13:25:09;4.37;;;3.53;;
7493;SDS011;3788;49.902;8.590;2022-07-29T13:27:37;3.57;;;3.30;;
7493;SDS011;3788;49.902;8.590;2022-07-29T13:30:05;3.17;;;2.97;;
7493;SDS011;3788;49.902;8.590;2022-07-29T13:32:35;3.13;;;2.93;;
7493;SDS011;3788;49.902;8.590;2022-07-29T13:35:03;3.40;;;3.20;;
7493;SDS011;3788;49.902;8.590;2022-07-29T13:37:31;4.60;;;2.93;;
7493;SDS011;3788;49.902;8.590;2022-07-29T13:40:00;4.67;;;3.10;;
7493;SDS011;3788;49.902;8.590;2022-07-29T13:42:28;3.53;;;3.23;;
7493;SDS011;3788;49.902;8.590;2022-07-29T13:44:54;3.37;;;3.10;;
7493;SDS011;3788;49.902;8.590;2022-07-29T13:47:21;3.87;;;3.43;;
7493;SDS011;3788;49.902;8.590;2022-07-29T13:49:50;3.53;;;3.07;;
7493;SDS011;3788;49.902;8.590;2022-07-29T13:52:18;3.37;;;3.07;;
7493;SDS011;3788;49.902;8.590;2022-07-29T13:54:45;3.53;;;3.23;;
7493;SDS011;3788;49.902;8.590;2022-07-29T13:57:12;3.30;;;3.10;;
7493;SDS011;3788;49.902;8.590;2022-07-29T13:59:39;3.23;;;2.50;;
7493;SDS011;3788;49.902;8.590;2022-07-29T14:02:06;3.30;;;3.00;;
7493;SDS011;3788;49.902;8.590;2022-07-29T14:04:33;3.23;;;2.90;;
7493;SDS011;3788;49.902;8.590;2022-07-29T14:07:02;3.43;;;3.13;;
7493;SDS011;3788;49.902;8.590;2022-07-29T14:09:28;3.40;;;3.20;;
7493;SDS011;3788;49.902;8.590;2022-07-29T14:11:55;2.90;;;2.63;;
7493;SDS011;3788;49.902;8.590;2022-07-29T14:14:22;3.00;;;2.70;;
7493;SDS011;3788;49.902;8.590;2022-07-29T14:16:49;3.27;;;2.97;;
7493;SDS011;3788;49.902;8.590;2022-07-29T14:19:15;3.53;;;3.23;;
7493;SDS011;3788;49.902;8.590;2022-07-29T14:21:51;4.73;;;3.43;;
7493;SDS011;3788;49.902;8.590;2022-07-29T14:24:20;3.70;;;3.20;;
7493;SDS011;3788;49.902;8.590;2022-07-29T14:26:46;4.33;;;3.10;;
7493;SDS011;3788;49.902;8.590;2022-07-29T14:29:13;3.47;;;3.20;;
7493;SDS011;3788;49.902;8.590;2022-07-29T14:31:40;3.10;;;2.90;;
7493;SDS011;3788;49.902;8.590;2022-07-29T14:34:07;3.30;;;3.00;;
7493;SDS011;3788;49.902;8.590;2022-07-29T14:36:34;5.07;;;3.07;;
7493;SDS011;3788;49.902;8.590;2022-07-29T14:39:01;3.07;;;2.87;;
7493;SDS011;3788;49.902;8.590;2022-07-29T14:41:29;3.13;;;2.83;;
7493;SDS011;3788;49.902;8.590;2022-07-29T14:43:55;3.07;;;2.80;;
7493;SDS011;3788;49.902;8.590;2022-07-29T14:46:22;3.63;;;3.30;;
7493;SDS011;3788;49.902;8.590;2022-07-29T14:48:49;3.03;;;2.70;;
7493;SDS011;3788;49.902;8.590;2022-07-29T14:51:16;3.80;;;3.33;;
7493;SDS011;3788;49.902;8.590;2022-07-29T14:53:42;3.23;;;2.93;;
7493;SDS011;3788;49.902;8.590;2022-07-29T14:56:10;3.43;;;3.13;;
7493;SDS011;3788;49.902;8.590;2022-07-29T14:58:38;3.70;;;3.40;;
7493;SDS011;3788;49.902;8.590;2022-07-29T15:01:04;3.23;;;2.93;;
7493;SDS011;3788;49.902;8.590;2022-07-29T15:03:31;3.10;;;2.80;;
7493;SDS011;3788;49.902;8.590;2022-07-29T15:05:58;2.83;;;2.63;;
7493;SDS011;3788;49.902;8.590;2022-07-29T15:08:25;3.10;;;2.80;;
7493;SDS011;3788;49.902;8.590;2022-07-29T15:10:54;2.90;;;2.70;;
7493;SDS011;3788;49.902;8.590;2022-07-29T15:13:22;4.50;;;2.77;;
7493;SDS011;3788;49.902;8.590;2022-07-29T15:15:50;3.40;;;2.70;;
7493;SDS011;3788;49.902;8.590;2022-07-29T15:18:17;3.73;;;3.07;;
7493;SDS011;3788;49.902;8.590;2022-07-29T15:20:44;3.67;;;2.93;;
7493;SDS011;3788;49.902;8.590;2022-07-29T15:23:11;4.17;;;2.77;;
7493;SDS011;3788;49.902;8.590;2022-07-29T15:25:38;2.73;;;2.53;;
7493;SDS011;3788;49.902;8.590;2022-07-29T15:28:05;3.00;;;2.80;;
7493;SDS011;3788;49.902;8.590;2022-07-29T15:30:33;3.13;;;2.90;;
7493;SDS011;3788;49.902;8.590;2022-07-29T15:33:06;3.07;;;2.67;;
7493;SDS011;3788;49.902;8.590;2022-07-29T15:35:34;2.63;;;2.43;;
7493;SDS011;3788;49.902;8.590;2022-07-29T15:38:00;3.10;;;2.80;;
7493;SDS011;3788;49.902;8.590;2022-07-29T15:40:27;2.90;;;2.70;;
7493;SDS011;3788;49.902;8.590;2022-07-29T15:42:54;3.17;;;2.50;;
7493;SDS011;3788;49.902;8.590;2022-07-29T15:45:22;2.50;;;2.30;;